Time;durP1;ratioP1;P1;durP2;ratioP2;P2;SDS_P1;SDS_P2;PMS_P1;PMS_P2;Temp;Humidity;BMP_temperature;BMP_pressure;BME280_temperature;BME280_humidity;BME280_pressure;Samples;Min_cycle;Max_cycle;Signal;HPM_P1;HPM_P2
2023/08/09 00:00:46;;;;;;;8.40;1.33;;;13.40;99.90;;;;;;6187333;23;20021;-77
2023/08/09 00:03:12;;;;;;;5.82;1.30;;;13.30;99.90;;;;;;6160873;23;20017;-77
2023/08/09 00:05:38;;;;;;;8.35;1.30;;;13.30;99.90;;;;;;6161031;23;20111;-78
2023/08/09 00:08:04;;;;;;;8.88;1.40;;;13.20;99.90;;;;;;6160988;23;20048;-78
2023/08/09 00:10:29;;;;;;;12.27;1.95;;;13.20;99.90;;;;;;6187416;23;20017;-77
2023/08/09 00:12:55;;;;;;;6.65;1.40;;;13.20;99.90;;;;;;6187479;23;20092;-77
2023/08/09 00:15:21;;;;;;;9.20;1.70;;;13.20;99.90;;;;;;6187528;23;20353;-77
2023/08/09 00:17:47;;;;;;;8.55;1.70;;;13.20;99.90;;;;;;6160234;23;20024;-77
2023/08/09 00:20:15;;;;;;;11.95;1.60;;;13.20;99.90;;;;;;6160692;23;20021;-78
2023/08/09 00:22:41;;;;;;;14.55;1.95;;;13.20;99.90;;;;;;6187156;23;20024;-77
2023/08/09 00:25:13;;;;;;;9.60;1.83;;;13.20;99.90;;;;;;6186722;23;20025;-78
2023/08/09 00:27:40;;;;;;;5.00;1.38;;;13.20;99.90;;;;;;6185566;23;20087;-77
2023/08/09 00:30:16;;;;;;;12.40;1.70;;;13.20;99.90;;;;;;6160553;23;20043;-77
2023/08/09 00:32:42;;;;;;;5.80;1.27;;;13.10;99.90;;;;;;6185473;23;20024;-77
2023/08/09 00:35:12;;;;;;;8.30;1.75;;;13.10;99.90;;;;;;6160722;23;20044;-77
2023/08/09 00:37:38;;;;;;;6.88;1.60;;;13.10;99.90;;;;;;6187301;23;20017;-77
2023/08/09 00:40:07;;;;;;;9.13;1.13;;;13.10;99.90;;;;;;6187003;23;20045;-77
2023/08/09 00:42:33;;;;;;;5.20;1.70;;;13.00;99.90;;;;;;6185382;23;20020;-77
2023/08/09 00:44:58;;;;;;;7.60;1.60;;;13.00;99.90;;;;;;6185349;23;20029;-77
2023/08/09 00:47:24;;;;;;;8.82;1.73;;;13.10;99.90;;;;;;6160812;23;20350;-77
2023/08/09 00:49:50;;;;;;;9.70;1.40;;;13.10;99.90;;;;;;6187107;23;20017;-77
2023/08/09 00:52:19;;;;;;;9.32;1.60;;;13.10;99.90;;;;;;6186596;23;20017;-77
2023/08/09 00:54:46;;;;;;;12.45;2.00;;;13.10;99.90;;;;;;6160522;23;20017;-78
2023/08/09 00:57:13;;;;;;;9.95;1.90;;;13.10;99.90;;;;;;6160473;23;20014;-77
2023/08/09 00:59:38;;;;;;;9.80;1.95;;;13.10;99.90;;;;;;6187123;23;20071;-77
2023/08/09 01:02:04;;;;;;;6.22;1.50;;;13.10;99.90;;;;;;6186740;23;20024;-77
2023/08/09 01:04:30;;;;;;;10.95;1.88;;;13.10;99.90;;;;;;6185273;23;20095;-77
2023/08/09 01:07:09;;;;;;;11.30;1.70;;;13.20;99.90;;;;;;6186699;23;20017;-77
2023/08/09 01:10:00;;;;;;;13.65;1.90;;;13.30;99.90;;;;;;6187077;23;20013;-78
2023/08/09 01:12:34;;;;;;;9.77;1.80;;;13.20;99.90;;;;;;6160501;23;20092;-77
2023/08/09 01:15:02;;;;;;;8.02;1.48;;;13.30;99.90;;;;;;6160380;23;20052;-78
2023/08/09 01:17:31;;;;;;;6.25;1.60;;;13.30;99.90;;;;;;6160190;23;20099;-77
2023/08/09 01:19:58;;;;;;;9.15;1.65;;;13.30;99.90;;;;;;6160274;23;20017;-78
2023/08/09 01:22:31;;;;;;;14.82;1.45;;;13.30;99.90;;;;;;6160046;23;20021;-77
2023/08/09 01:25:08;;;;;;;10.50;1.88;;;13.40;99.90;;;;;;6184690;23;20459;-77
2023/08/09 01:27:38;;;;;;;12.88;2.00;;;13.40;99.90;;;;;;6186815;23;20031;-77
2023/08/09 01:30:07;;;;;;;9.57;1.30;;;13.50;99.90;;;;;;6159984;23;20327;-77
2023/08/09 01:32:33;;;;;;;10.82;1.77;;;13.80;99.90;;;;;;6184921;23;20048;-77
2023/08/09 01:34:59;;;;;;;5.82;1.35;;;13.80;99.90;;;;;;6159988;23;20039;-77
2023/08/09 01:37:52;;;;;;;10.95;1.75;;;14.00;99.90;;;;;;6159926;23;20013;-77
2023/08/09 01:40:19;;;;;;;6.25;1.52;;;14.10;99.90;;;;;;6184965;23;20040;-78
2023/08/09 01:42:46;;;;;;;7.80;1.40;;;14.10;99.90;;;;;;6186617;23;20052;-77
2023/08/09 01:45:13;;;;;;;6.40;1.55;;;14.20;99.90;;;;;;6160016;23;20013;-78
2023/08/09 01:47:40;;;;;;;8.07;1.60;;;14.20;99.90;;;;;;6160024;23;20373;-78
2023/08/09 01:50:15;;;;;;;7.95;1.20;;;14.20;99.90;;;;;;6159711;23;20406;-77
2023/08/09 01:52:41;;;;;;;7.65;1.85;;;14.30;99.90;;;;;;6186253;23;20322;-78
2023/08/09 01:55:07;;;;;;;7.53;1.55;;;14.30;99.90;;;;;;6186629;23;20504;-78
2023/08/09 01:57:32;;;;;;;6.20;1.20;;;14.40;99.90;;;;;;6159799;23;20021;-77
2023/08/09 01:59:58;;;;;;;7.65;1.30;;;14.40;99.90;;;;;;6159914;23;20094;-78
2023/08/09 02:02:24;;;;;;;6.05;1.20;;;14.40;99.90;;;;;;6186161;23;20055;-77
2023/08/09 02:04:50;;;;;;;6.05;1.50;;;14.50;99.90;;;;;;6186121;23;20052;-77
2023/08/09 02:07:15;;;;;;;9.98;1.65;;;14.50;99.90;;;;;;6186384;23;20016;-77
2023/08/09 02:09:44;;;;;;;5.80;1.27;;;14.50;99.90;;;;;;6159627;23;20009;-77
2023/08/09 02:12:10;;;;;;;7.38;1.40;;;14.50;99.90;;;;;;6159750;23;20337;-77
2023/08/09 02:14:35;;;;;;;6.20;1.88;;;14.50;99.90;;;;;;6186329;23;20008;-77
2023/08/09 02:17:02;;;;;;;5.50;1.10;;;14.50;99.90;;;;;;6159764;23;20025;-77
2023/08/09 02:19:31;;;;;;;6.85;1.67;;;14.60;99.90;;;;;;6159628;23;20143;-77
2023/08/09 02:21:56;;;;;;;7.97;1.60;;;14.60;99.90;;;;;;6159681;23;20044;-77
2023/08/09 02:24:23;;;;;;;9.98;1.73;;;14.60;99.90;;;;;;6185849;23;20017;-77
2023/08/09 02:26:49;;;;;;;8.45;1.30;;;14.60;99.90;;;;;;6186299;23;20104;-77
2023/08/09 02:29:15;;;;;;;6.93;1.48;;;14.60;99.90;;;;;;6159522;23;20021;-78
2023/08/09 02:31:41;;;;;;;12.77;1.70;;;14.60;99.90;;;;;;6159664;23;20028;-77
2023/08/09 02:34:06;;;;;;;6.55;1.15;;;14.70;99.90;;;;;;6186318;23;20021;-77
2023/08/09 02:36:32;;;;;;;3.45;1.40;;;14.70;99.90;;;;;;6159615;23;20346;-78
2023/08/09 02:38:58;;;;;;;6.07;1.17;;;14.70;99.90;;;;;;6159629;23;20449;-78
2023/08/09 02:41:24;;;;;;;4.95;1.10;;;14.70;99.90;;;;;;6162330;23;20336;-77
2023/08/09 02:43:49;;;;;;;8.15;1.38;;;14.70;99.90;;;;;;6162934;23;20501;-77
2023/08/09 02:46:15;;;;;;;6.63;1.25;;;14.70;99.90;;;;;;6162912;23;20076;-78
2023/08/09 02:48:41;;;;;;;7.57;1.42;;;14.70;99.90;;;;;;6162959;23;20085;-78
2023/08/09 02:51:06;;;;;;;7.00;1.58;;;14.70;99.90;;;;;;6162711;23;20017;-78
2023/08/09 02:53:36;;;;;;;7.20;1.15;;;14.70;99.90;;;;;;6162814;23;20020;-78
2023/08/09 02:56:05;;;;;;;8.45;1.85;;;14.70;99.90;;;;;;6189557;23;20090;-78
2023/08/09 02:58:30;;;;;;;8.23;1.17;;;14.70;99.90;;;;;;6189077;23;20013;-78
2023/08/09 03:00:56;;;;;;;8.30;1.30;;;14.70;99.90;;;;;;6189414;23;20067;-78
2023/08/09 03:03:22;;;;;;;7.03;1.42;;;14.70;99.90;;;;;;6189490;23;20013;-77
2023/08/09 03:05:48;;;;;;;9.13;1.50;;;14.70;99.90;;;;;;6162762;23;20441;-78
2023/08/09 03:08:14;;;;;;;7.55;1.50;;;14.70;99.90;;;;;;6189226;23;20017;-77
2023/08/09 03:10:39;;;;;;;7.90;1.42;;;14.80;99.90;;;;;;6189398;23;20040;-76
2023/08/09 03:13:05;;;;;;;6.85;1.40;;;14.80;99.90;;;;;;6189053;23;20341;-77
2023/08/09 03:15:31;;;;;;;6.07;1.23;;;14.80;99.90;;;;;;6162763;23;20024;-77
2023/08/09 03:17:56;;;;;;;8.00;1.50;;;14.80;99.90;;;;;;6162763;23;20024;-78
2023/08/09 03:20:22;;;;;;;5.88;1.60;;;14.80;99.90;;;;;;6189425;23;20043;-78
2023/08/09 03:22:48;;;;;;;5.40;1.40;;;14.80;99.90;;;;;;6189304;23;20075;-78
2023/08/09 03:25:14;;;;;;;6.10;1.20;;;14.80;99.90;;;;;;6188870;23;20341;-77
2023/08/09 03:27:41;;;;;;;7.65;1.25;;;14.80;99.90;;;;;;6162772;23;20013;-78
2023/08/09 03:30:08;;;;;;;10.68;1.40;;;14.80;99.90;;;;;;6188907;23;20021;-78
2023/08/09 03:32:34;;;;;;;8.23;1.67;;;14.80;99.90;;;;;;6162295;23;20049;-77
2023/08/09 03:35:01;;;;;;;6.82;1.15;;;14.80;99.90;;;;;;6188989;23;20484;-78
2023/08/09 03:37:27;;;;;;;9.27;1.52;;;14.80;99.90;;;;;;6162630;23;20437;-78
2023/08/09 03:39:52;;;;;;;9.07;1.40;;;14.80;99.90;;;;;;6189374;23;20048;-77
2023/08/09 03:42:18;;;;;;;6.05;1.70;;;14.70;99.90;;;;;;6189345;23;20067;-77
2023/08/09 03:44:44;;;;;;;8.07;1.80;;;14.60;99.90;;;;;;6162576;23;20472;-77
2023/08/09 03:47:09;;;;;;;8.85;1.85;;;14.50;99.90;;;;;;6162360;23;20053;-77
2023/08/09 03:49:35;;;;;;;9.63;1.80;;;14.30;99.90;;;;;;6162576;23;20319;-78
2023/08/09 03:52:01;;;;;;;7.07;2.22;;;14.20;99.90;;;;;;6161796;23;20350;-77
2023/08/09 03:54:26;;;;;;;7.78;1.90;;;14.00;99.90;;;;;;6187403;23;20056;-77
2023/08/09 03:56:52;;;;;;;12.10;1.75;;;13.90;99.90;;;;;;6187396;23;20025;-77
2023/08/09 03:59:18;;;;;;;5.63;1.83;;;13.60;99.90;;;;;;6161113;23;20013;-77
2023/08/09 04:01:43;;;;;;;9.80;2.28;;;13.50;99.90;;;;;;6160648;23;20437;-77
2023/08/09 04:04:09;;;;;;;7.53;2.05;;;13.40;99.90;;;;;;6159486;23;20020;-77
2023/08/09 04:06:35;;;;;;;8.60;2.13;;;13.40;99.90;;;;;;6159638;23;20043;-77
2023/08/09 04:09:01;;;;;;;12.65;2.25;;;13.20;99.90;;;;;;6160542;23;20017;-77
2023/08/09 04:11:26;;;;;;;8.70;2.35;;;13.20;99.90;;;;;;6160652;23;20044;-77
2023/08/09 04:13:53;;;;;;;11.75;2.38;;;13.10;99.90;;;;;;6160791;23;20188;-77
2023/08/09 04:16:18;;;;;;;7.97;2.00;;;13.00;99.90;;;;;;6160555;23;20025;-78
2023/08/09 04:18:44;;;;;;;6.53;1.98;;;12.90;99.90;;;;;;6160624;23;20013;-77
2023/08/09 04:21:10;;;;;;;9.27;2.22;;;12.80;99.90;;;;;;6160699;23;20021;-77
2023/08/09 04:23:36;;;;;;;7.38;2.60;;;12.70;99.90;;;;;;6187304;23;20028;-77
2023/08/09 04:26:03;;;;;;;9.82;2.10;;;12.70;99.90;;;;;;6186860;23;20017;-77
2023/08/09 04:28:29;;;;;;;7.13;1.90;;;12.60;99.90;;;;;;6160387;23;20323;-77
2023/08/09 04:30:55;;;;;;;15.25;4.35;;;12.60;99.90;;;;;;6186769;23;20017;-77
2023/08/09 04:33:22;;;;;;;10.63;2.38;;;12.50;99.90;;;;;;6187052;23;20021;-77
2023/08/09 04:35:48;;;;;;;8.98;2.83;;;12.50;99.90;;;;;;6185357;23;20333;-77
2023/08/09 04:38:14;;;;;;;11.60;2.53;;;12.50;99.90;;;;;;6186811;23;20048;-77
2023/08/09 04:40:40;;;;;;;6.60;2.53;;;12.40;99.90;;;;;;6187156;23;20025;-77
2023/08/09 04:43:05;;;;;;;9.10;2.10;;;12.40;99.90;;;;;;6160321;23;20025;-77
2023/08/09 04:45:32;;;;;;;9.27;2.22;;;12.40;99.90;;;;;;6186532;23;20341;-77
2023/08/09 04:47:58;;;;;;;9.20;3.15;;;12.40;99.90;;;;;;6187044;23;20049;-77
2023/08/09 04:50:24;;;;;;;8.88;2.25;;;12.40;99.90;;;;;;6186812;23;20028;-77
2023/08/09 04:52:50;;;;;;;10.52;2.30;;;12.40;99.90;;;;;;6187028;23;20423;-77
2023/08/09 04:55:16;;;;;;;6.70;2.25;;;12.40;99.90;;;;;;6186569;23;20017;-77
2023/08/09 04:57:42;;;;;;;8.88;2.42;;;12.40;99.90;;;;;;6160330;23;20021;-77
2023/08/09 05:00:12;;;;;;;8.05;2.13;;;12.50;99.90;;;;;;6185035;23;20017;-77
2023/08/09 05:02:38;;;;;;;10.73;2.10;;;12.50;99.90;;;;;;6159976;23;20079;-77
2023/08/09 05:05:07;;;;;;;7.97;2.38;;;12.60;99.90;;;;;;6160225;23;20017;-77
2023/08/09 05:07:33;;;;;;;8.45;2.63;;;12.70;99.90;;;;;;6186837;23;20036;-77
2023/08/09 05:10:00;;;;;;;5.65;2.10;;;12.70;99.90;;;;;;6186354;23;20449;-77
2023/08/09 05:12:28;;;;;;;12.98;2.10;;;12.70;99.90;;;;;;6186232;23;20446;-77
2023/08/09 05:14:54;;;;;;;8.48;2.10;;;12.70;99.90;;;;;;6160188;23;20013;-77
2023/08/09 05:17:20;;;;;;;5.07;2.10;;;12.80;99.90;;;;;;6160182;23;20103;-77
2023/08/09 05:19:46;;;;;;;12.75;2.10;;;12.90;99.90;;;;;;6160141;23;20044;-77
2023/08/09 05:22:12;;;;;;;9.13;2.13;;;12.90;99.90;;;;;;6160113;23;20341;-77
2023/08/09 05:24:38;;;;;;;13.07;2.15;;;12.90;99.90;;;;;;6159780;23;20441;-77
2023/08/09 05:27:08;;;;;;;12.68;2.28;;;13.00;99.90;;;;;;6160104;23;20017;-77
2023/08/09 05:29:34;;;;;;;11.50;3.22;;;13.00;99.90;;;;;;6186482;23;20056;-77
2023/08/09 05:31:59;;;;;;;10.88;2.03;;;13.10;99.90;;;;;;6186689;23;20024;-78
2023/08/09 05:34:25;;;;;;;7.20;2.10;;;13.10;99.90;;;;;;6159904;23;20017;-77
2023/08/09 05:36:51;;;;;;;12.43;2.38;;;13.20;99.90;;;;;;6186429;23;20389;-77
2023/08/09 05:39:16;;;;;;;10.52;2.28;;;13.30;99.90;;;;;;6186522;23;20028;-78
2023/08/09 05:41:42;;;;;;;7.20;2.05;;;13.40;99.90;;;;;;6186452;23;20024;-78
2023/08/09 05:44:08;;;;;;;6.28;2.05;;;13.40;99.90;;;;;;6159968;23;20021;-78
2023/08/09 05:46:33;;;;;;;13.20;2.13;;;13.50;99.90;;;;;;6159929;23;20028;-78
2023/08/09 05:48:59;;;;;;;9.00;2.00;;;13.60;99.90;;;;;;6160265;23;20056;-78
2023/08/09 05:51:25;;;;;;;6.07;1.85;;;13.80;99.90;;;;;;6159837;23;20017;-78
2023/08/09 05:53:51;;;;;;;7.47;2.10;;;13.80;99.90;;;;;;6159799;23;20079;-78
2023/08/09 05:56:17;;;;;;;11.02;2.05;;;14.00;99.90;;;;;;6159662;23;20071;-77
2023/08/09 05:58:43;;;;;;;7.30;2.00;;;14.00;99.90;;;;;;6186444;23;20013;-78
2023/08/09 06:01:08;;;;;;;9.30;2.22;;;14.20;99.90;;;;;;6159697;23;20021;-77
2023/08/09 06:03:39;;;;;;;6.97;2.00;;;14.30;99.90;;;;;;6186078;23;20024;-78
2023/08/09 06:06:08;;;;;;;10.27;2.10;;;14.40;99.90;;;;;;6185984;23;20434;-77
2023/08/09 06:08:35;;;;;;;8.95;2.55;;;14.60;99.90;;;;;;6186348;23;20052;-78
2023/08/09 06:11:01;;;;;;;6.50;1.73;;;14.70;99.90;;;;;;6159099;23;20049;-77
2023/08/09 06:13:27;;;;;;;9.82;2.58;;;14.80;99.90;;;;;;6186224;23;20013;-77
2023/08/09 06:15:53;;;;;;;7.60;1.88;;;15.00;99.90;;;;;;6185354;23;20095;-77
2023/08/09 06:18:18;;;;;;;8.63;1.88;;;15.20;99.90;;;;;;6186174;23;20013;-77
2023/08/09 06:20:44;;;;;;;6.32;1.67;;;15.30;99.90;;;;;;6159670;23;20017;-77
2023/08/09 06:23:10;;;;;;;6.22;1.90;;;15.50;99.90;;;;;;6184494;23;20509;-77
2023/08/09 06:25:36;;;;;;;12.15;2.10;;;15.70;99.90;;;;;;6185683;23;20025;-77
2023/08/09 06:28:05;;;;;;;6.20;1.90;;;15.80;99.90;;;;;;6159598;23;20109;-77
2023/08/09 06:30:31;;;;;;;10.45;1.73;;;16.00;99.90;;;;;;6159432;23;20021;-78
2023/08/09 06:32:56;;;;;;;4.80;1.63;;;16.10;99.90;;;;;;6159637;23;20476;-77
2023/08/09 06:35:22;;;;;;;9.50;2.78;;;16.30;99.90;;;;;;6185882;23;20025;-77
2023/08/09 06:37:52;;;;;;;9.45;2.22;;;16.50;99.90;;;;;;6159416;23;20021;-76
2023/08/09 06:40:18;;;;;;;6.95;1.90;;;16.60;99.90;;;;;;6185972;23;20062;-77
2023/08/09 06:42:47;;;;;;;6.72;1.80;;;16.80;99.90;;;;;;6185699;23;20453;-79
2023/08/09 06:45:12;;;;;;;8.68;1.77;;;17.00;99.90;;;;;;6159413;23;20013;-77
2023/08/09 06:47:38;;;;;;;8.10;1.75;;;17.10;99.90;;;;;;6184963;23;20449;-77
2023/08/09 06:50:04;;;;;;;10.43;1.92;;;17.20;99.90;;;;;;6159010;23;20021;-76
2023/08/09 06:52:37;;;;;;;8.93;1.83;;;17.40;99.90;;;;;;6159481;23;20064;-75
2023/08/09 06:55:08;;;;;;;9.55;1.83;;;17.40;99.90;;;;;;6158034;23;20080;-76
2023/08/09 06:57:36;;;;;;;6.43;1.80;;;17.50;99.90;;;;;;6185009;23;20028;-77
2023/08/09 07:00:15;;;;;;;10.43;2.35;;;17.70;99.90;;;;;;6159020;23;20017;-77
2023/08/09 07:02:41;;;;;;;11.82;1.73;;;17.80;99.90;;;;;;6158623;23;20349;-77
2023/08/09 07:05:15;;;;;;;9.30;1.92;;;17.90;99.90;;;;;;6159153;23;20025;-77
2023/08/09 07:07:43;;;;;;;8.63;2.25;;;18.00;99.90;;;;;;6158592;23;20487;-77
2023/08/09 07:10:10;;;;;;;8.00;1.95;;;18.00;99.90;;;;;;6185403;23;20076;-77
2023/08/09 07:12:35;;;;;;;6.57;1.48;;;18.20;99.90;;;;;;6185809;23;20051;-77
2023/08/09 07:15:08;;;;;;;6.90;1.67;;;18.30;99.90;;;;;;6158558;23;20021;-77
2023/08/09 07:17:37;;;;;;;;;;;18.30;99.90;;;;;;6159519;23;20017;-77
2023/08/09 07:20:08;;;;;;;5.57;1.60;;;18.30;99.90;;;;;;6159028;23;20324;-77
2023/08/09 07:22:34;;;;;;;7.10;1.20;;;18.40;99.90;;;;;;6159104;23;20337;-77
2023/08/09 07:25:00;;;;;;;5.40;1.58;;;18.50;99.90;;;;;;6158502;23;20021;-77
2023/08/09 07:27:26;;;;;;;8.05;1.88;;;18.50;99.90;;;;;;6159846;23;20117;-77
2023/08/09 07:29:53;;;;;;;8.48;1.75;;;18.60;99.90;;;;;;6160855;23;20053;-77
2023/08/09 07:32:18;;;;;;;8.75;1.77;;;18.60;99.90;;;;;;6160335;23;20017;-78
2023/08/09 07:34:44;;;;;;;6.53;2.25;;;18.60;99.90;;;;;;6160431;23;20350;-77
2023/08/09 07:37:10;;;;;;;8.13;1.50;;;18.70;99.90;;;;;;6161018;23;20028;-77
2023/08/09 07:39:35;;;;;;;7.13;1.55;;;18.70;99.90;;;;;;6185305;23;20341;-77
2023/08/09 07:42:01;;;;;;;6.95;1.70;;;18.80;99.90;;;;;;6160382;23;20399;-77
2023/08/09 07:44:27;;;;;;;10.00;1.60;;;18.90;99.90;;;;;;6160320;23;20325;-77
2023/08/09 07:46:52;;;;;;;10.73;1.98;;;18.90;99.90;;;;;;6160646;23;20021;-77
2023/08/09 07:49:18;;;;;;;10.77;2.72;;;18.90;99.90;;;;;;6160273;23;20044;-77
2023/08/09 07:51:44;;;;;;;9.68;2.00;;;18.90;99.90;;;;;;6160319;23;20021;-77
2023/08/09 07:54:10;;;;;;;8.95;1.92;;;19.00;99.90;;;;;;6160360;23;20017;-77
2023/08/09 07:56:35;;;;;;;8.88;2.00;;;19.10;99.90;;;;;;6160632;23;20020;-75
2023/08/09 07:59:01;;;;;;;6.93;2.47;;;19.10;99.90;;;;;;6160723;23;20024;-75
2023/08/09 08:01:27;;;;;;;10.77;1.92;;;19.10;99.90;;;;;;6187235;23;20017;-76
2023/08/09 08:03:52;;;;;;;9.52;1.92;;;19.20;99.90;;;;;;6160662;23;20017;-75
2023/08/09 08:06:18;;;;;;;5.70;2.33;;;19.20;99.90;;;;;;6160535;23;20013;-75
2023/08/09 08:08:45;;;;;;;8.95;2.25;;;19.40;99.90;;;;;;6160611;23;20414;-75
2023/08/09 08:11:11;;;;;;;7.88;1.80;;;19.50;99.90;;;;;;6160393;23;20441;-75
2023/08/09 08:13:37;;;;;;;8.10;2.10;;;19.50;99.90;;;;;;6160618;23;20020;-88
2023/08/09 08:16:04;;;;;;;8.13;1.85;;;19.40;99.90;;;;;;6160479;23;20052;-75
2023/08/09 08:18:30;;;;;;;6.90;2.10;;;19.30;99.90;;;;;;6186765;23;20446;-76
2023/08/09 08:20:57;;;;;;;8.00;1.67;;;19.50;99.90;;;;;;6186788;23;20017;-77
2023/08/09 08:23:23;;;;;;;11.50;2.78;;;19.50;99.90;;;;;;6160509;23;20021;-76
2023/08/09 08:25:49;;;;;;;8.52;1.80;;;19.50;99.90;;;;;;6185097;23;20054;-78
2023/08/09 08:28:15;;;;;;;5.25;1.67;;;19.60;99.90;;;;;;6187215;23;20048;-77
2023/08/09 08:30:40;;;;;;;14.90;2.00;;;19.70;99.90;;;;;;6160354;23;20327;-75
2023/08/09 08:33:08;;;;;;;11.48;2.00;;;19.70;99.90;;;;;;6160368;23;20426;-77
2023/08/09 08:35:43;;;;;;;7.85;2.00;;;19.70;99.90;;;;;;6186743;23;20437;-77
2023/08/09 08:38:09;;;;;;;11.57;1.92;;;19.60;99.90;;;;;;6186584;23;20021;-78
2023/08/09 08:40:35;;;;;;;7.45;2.00;;;19.60;99.90;;;;;;6160227;23;20024;-76
2023/08/09 08:43:01;;;;;;;10.20;2.00;;;19.70;99.90;;;;;;6186707;23;20430;-76
2023/08/09 08:45:27;;;;;;;7.22;1.63;;;19.70;99.90;;;;;;6160631;23;20021;-77
2023/08/09 08:47:53;;;;;;;8.65;2.30;;;19.50;99.90;;;;;;6186874;23;20024;-76
2023/08/09 08:50:19;;;;;;;12.60;2.17;;;19.40;99.90;;;;;;6160185;23;20017;-76
2023/08/09 08:52:47;;;;;;;6.32;1.80;;;19.40;99.90;;;;;;6186786;23;20021;-76
2023/08/09 08:55:14;;;;;;;9.45;2.10;;;19.60;99.90;;;;;;6160133;23;20009;-77
2023/08/09 08:57:46;;;;;;;5.93;2.00;;;19.60;99.90;;;;;;6160001;23;20021;-78
2023/08/09 09:00:16;;;;;;;8.18;2.17;;;19.70;99.90;;;;;;6160137;23;20009;-77
2023/08/09 09:02:45;;;;;;;10.25;1.90;;;19.80;99.90;;;;;;6158416;23;20052;-78
2023/08/09 09:05:16;;;;;;;7.60;1.85;;;19.70;99.90;;;;;;6159708;23;20021;-77
2023/08/09 09:07:42;;;;;;;6.93;2.00;;;19.50;99.90;;;;;;6186454;23;20096;-77
2023/08/09 09:10:12;;;;;;;11.95;1.77;;;19.50;99.90;;;;;;6155844;23;20031;-78
2023/08/09 09:12:38;;;;;;;6.40;1.77;;;19.60;99.90;;;;;;6155418;23;20517;-78
2023/08/09 09:15:06;;;;;;;8.20;1.77;;;19.70;99.90;;;;;;6156139;23;20362;-78
2023/08/09 09:17:43;;;;;;;8.95;1.80;;;19.70;99.90;;;;;;6159771;23;20508;-77
2023/08/09 09:20:23;;;;;;;13.07;2.28;;;19.80;99.90;;;;;;6159633;23;20053;-78
2023/08/09 09:22:50;;;;;;;7.03;1.88;;;19.90;99.90;;;;;;6133271;23;20064;-78
2023/08/09 09:25:17;;;;;;;9.77;2.03;;;19.90;99.90;;;;;;6185600;23;20021;-78
2023/08/09 09:27:47;;;;;;;5.72;1.88;;;19.70;99.90;;;;;;6159676;23;20514;-78
2023/08/09 09:30:19;;;;;;;6.25;1.70;;;19.60;99.90;;;;;;6159525;23;20021;-77
2023/08/09 09:32:51;;;;;;;8.20;1.88;;;19.70;99.90;;;;;;6159264;23;20467;-78
2023/08/09 09:35:20;;;;;;;7.10;1.60;;;19.70;99.90;;;;;;6159233;23;20088;-77
2023/08/09 09:37:47;;;;;;;8.35;2.00;;;19.90;99.90;;;;;;6158815;23;20266;-76
2023/08/09 09:40:22;;;;;;;4.60;1.65;;;20.00;99.90;;;;;;6159243;23;20088;-76
2023/08/09 09:42:52;;;;;;;6.20;1.75;;;20.20;99.90;;;;;;6160128;23;20342;-76
2023/08/09 09:45:24;;;;;;;7.50;2.10;;;20.00;99.90;;;;;;6184484;23;20017;-76
2023/08/09 09:47:53;;;;;;;7.40;1.60;;;20.10;99.90;;;;;;6185981;23;20047;-76
2023/08/09 09:50:22;;;;;;;7.32;1.85;;;20.10;99.90;;;;;;6159425;23;20052;-76
2023/08/09 09:52:49;;;;;;;7.68;1.80;;;20.30;99.90;;;;;;6186044;23;20021;-76
2023/08/09 09:55:20;;;;;;;6.70;1.70;;;20.30;99.90;;;;;;6159581;23;20092;-76
2023/08/09 09:57:47;;;;;;;6.35;1.98;;;20.10;99.90;;;;;;6159659;23;20057;-76
2023/08/09 10:00:16;;;;;;;5.68;2.10;;;20.00;99.90;;;;;;6159508;23;20032;-76
2023/08/09 10:02:47;;;;;;;4.25;1.70;;;19.90;99.90;;;;;;6159491;23;20020;-76
2023/08/09 10:05:51;;;;;;;7.10;1.92;;;20.10;99.90;;;;;;6159520;23;20116;-76
2023/08/09 10:08:19;;;;;;;6.85;1.48;;;20.20;99.90;;;;;;6134314;23;20021;-76
2023/08/09 10:10:47;;;;;;;5.70;1.75;;;20.00;99.90;;;;;;6185467;23;20511;-76
2023/08/09 10:13:19;;;;;;;6.45;2.00;;;19.80;99.90;;;;;;6159407;23;20013;-75
2023/08/09 10:15:53;;;;;;;;;;;19.70;99.90;;;;;;6159909;23;20025;-77
2023/08/09 10:18:27;;;;;;;6.50;2.22;;;19.80;99.90;;;;;;6184240;23;19916;-77
2023/08/09 10:20:55;;;;;;;7.57;1.77;;;19.90;99.90;;;;;;6159310;23;20016;-77
2023/08/09 10:23:22;;;;;;;5.50;1.80;;;19.90;99.90;;;;;;6159391;23;20021;-76
2023/08/09 10:25:50;;;;;;;4.78;1.65;;;20.00;99.90;;;;;;6158597;23;20100;-76
2023/08/09 10:28:37;;;;;;;6.35;1.60;;;20.30;99.90;;;;;;6184917;23;20504;-76
2023/08/09 10:31:05;;;;;;;6.70;1.80;;;20.30;99.90;;;;;;6185454;23;20021;-76
2023/08/09 10:33:31;;;;;;;7.00;1.83;;;20.30;99.90;;;;;;6185862;23;20086;-77
2023/08/09 10:35:57;;;;;;;6.45;1.85;;;20.50;99.90;;;;;;6158847;23;20472;-75
2023/08/09 10:38:31;;;;;;;5.45;2.05;;;20.60;99.90;;;;;;6185923;23;20013;-78
2023/08/09 10:41:02;;;;;;;10.77;1.98;;;20.70;99.90;;;;;;6157493;23;20018;-76
2023/08/09 10:43:30;;;;;;;5.32;1.73;;;20.60;99.90;;;;;;6159026;23;20024;-76
2023/08/09 10:45:56;;;;;;;7.22;1.92;;;20.70;99.90;;;;;;6159050;23;20028;-76
2023/08/09 10:48:28;;;;;;;5.72;2.45;;;20.70;99.90;;;;;;6184450;23;20013;-76
2023/08/09 10:51:20;;;;;;;4.50;1.35;;;20.80;99.90;;;;;;6185129;23;20021;-75
2023/08/09 10:54:01;;;;;;;9.48;1.88;;;20.80;99.90;;;;;;6171966;23;20020;-76
2023/08/09 10:56:32;;;;;;;6.97;2.30;;;20.70;99.90;;;;;;6158448;23;20341;-76
2023/08/09 10:59:04;;;;;;;3.38;1.42;;;20.50;99.90;;;;;;6159146;23;20016;-75
2023/08/09 11:01:32;;;;;;;10.32;2.30;;;20.50;99.90;;;;;;6185760;23;20021;-76
2023/08/09 11:03:58;;;;;;;8.45;1.73;;;20.60;99.90;;;;;;6160789;23;20437;-75
2023/08/09 11:06:42;;;;;;;8.07;1.77;;;20.80;99.90;;;;;;6160715;23;20057;-76
2023/08/09 11:09:12;;;;;;;9.15;2.00;;;20.90;99.90;;;;;;6187583;23;20025;-75
2023/08/09 11:11:40;;;;;;;8.52;2.00;;;20.90;99.90;;;;;;6187848;23;20028;-76
2023/08/09 11:14:07;;;;;;;6.22;1.45;;;21.10;99.90;;;;;;6161257;23;20048;-75
2023/08/09 11:16:33;;;;;;;6.70;1.83;;;21.10;99.90;;;;;;6160341;23;20017;-76
2023/08/09 11:19:03;;;;;;;9.23;2.05;;;21.00;99.90;;;;;;6160920;23;20057;-75
2023/08/09 11:21:41;;;;;;;6.93;2.00;;;21.10;99.90;;;;;;6160984;23;20009;-76
2023/08/09 11:24:08;;;;;;;8.85;2.10;;;21.00;99.90;;;;;;6161081;23;20013;-75
2023/08/09 11:26:45;;;;;;;8.65;2.20;;;21.00;99.90;;;;;;6160946;23;20080;-75
2023/08/09 11:29:11;;;;;;;7.68;2.17;;;21.10;99.90;;;;;;6161019;23;20092;-74
2023/08/09 11:31:45;;;;;;;10.02;2.40;;;21.30;99.90;;;;;;6187282;23;20055;-74
2023/08/09 11:34:15;;;;;;;9.10;2.33;;;21.40;99.90;;;;;;6160861;23;20017;-74
2023/08/09 11:36:42;;;;;;;8.13;2.40;;;21.50;99.90;;;;;;6160914;23;20028;-74
2023/08/09 11:39:10;;;;;;;10.98;2.33;;;21.60;99.90;;;;;;6160924;23;20029;-78
2023/08/09 11:41:43;;;;;;;7.93;2.40;;;21.60;99.90;;;;;;6185458;23;20449;-78
2023/08/09 11:44:11;;;;;;;12.18;3.05;;;21.60;99.90;;;;;;6187115;23;20020;-76
2023/08/09 11:46:37;;;;;;;12.40;2.53;;;21.60;99.90;;;;;;6160070;23;20020;-78
2023/08/09 11:49:04;;;;;;;11.90;3.08;;;21.50;99.90;;;;;;6160156;23;20017;-76
2023/08/09 11:51:31;;;;;;;17.15;3.05;;;21.80;99.90;;;;;;6187368;23;20055;-76
2023/08/09 11:53:57;;;;;;;15.07;3.15;;;21.90;99.90;;;;;;6160786;23;20078;-77
2023/08/09 11:56:23;;;;;;;9.63;2.47;;;21.50;99.90;;;;;;6187343;23;20084;-77
2023/08/09 11:58:54;;;;;;;16.90;2.97;;;21.60;99.90;;;;;;6160585;23;20017;-77
2023/08/09 12:01:35;;;;;;;14.73;3.38;;;21.50;99.90;;;;;;6187340;23;20016;-77
2023/08/09 12:04:07;;;;;;;16.75;2.90;;;21.60;99.90;;;;;;6160677;23;20024;-75
2023/08/09 12:06:42;;;;;;;11.60;3.17;;;21.60;99.90;;;;;;6159152;23;20341;-76
2023/08/09 12:09:45;;;;;;;11.88;3.35;;;21.40;99.90;;;;;;6148679;23;20013;-76
2023/08/09 12:12:18;;;;;;;13.57;3.47;;;21.30;99.90;;;;;;6042770;23;20041;-76
2023/08/09 12:14:52;;;;;;;11.82;2.65;;;21.40;99.90;;;;;;6142830;23;20021;-76
2023/08/09 12:17:26;;;;;;;12.27;3.03;;;21.40;99.90;;;;;;6160231;23;20013;-77
2023/08/09 12:19:55;;;;;;;15.82;2.83;;;21.50;99.90;;;;;;6160390;23;20013;-77
2023/08/09 12:22:22;;;;;;;9.88;2.53;;;21.60;99.90;;;;;;6160474;23;20405;-76
2023/08/09 12:24:48;;;;;;;20.30;3.03;;;21.50;99.90;;;;;;6160284;23;20009;-77
2023/08/09 12:27:17;;;;;;;8.88;2.40;;;21.70;99.90;;;;;;6187134;23;20091;-77
2023/08/09 12:29:43;;;;;;;16.88;2.90;;;21.60;99.90;;;;;;6186494;23;20476;-77
2023/08/09 12:32:08;;;;;;;13.10;2.80;;;21.60;99.90;;;;;;6186520;23;20021;-77
2023/08/09 12:34:34;;;;;;;12.00;3.50;;;21.60;99.90;;;;;;6160215;23;20103;-77
2023/08/09 12:37:00;;;;;;;9.95;2.42;;;21.70;99.90;;;;;;6187143;23;20456;-77
2023/08/09 12:39:27;;;;;;;13.48;3.30;;;21.70;99.90;;;;;;6160239;23;20046;-77
2023/08/09 12:41:53;;;;;;;13.32;3.10;;;21.60;99.90;;;;;;6186757;23;20017;-78
2023/08/09 12:44:19;;;;;;;13.73;3.25;;;21.60;99.90;;;;;;6160302;23;20088;-77
2023/08/09 12:46:45;;;;;;;15.52;2.50;;;21.40;99.90;;;;;;6160093;23;20456;-76
2023/08/09 12:49:11;;;;;;;15.15;2.90;;;21.40;99.90;;;;;;6186975;23;20020;-77